createdAt,value
2022-11-22T00:00:02.943Z,76.00
2022-11-22T00:02:34.241Z,64.70
2022-11-22T00:05:03.774Z,60.03
2022-11-22T00:07:30.989Z,57.80
2022-11-22T00:09:58.233Z,58.07
2022-11-22T00:12:26.504Z,55.53
2022-11-22T00:14:56.858Z,71.00
2022-11-22T00:17:24.394Z,54.70
2022-11-22T00:19:52.463Z,56.90
2022-11-22T00:22:19.693Z,61.37
2022-11-22T00:24:47.092Z,54.70
2022-11-22T00:27:14.292Z,52.60
2022-11-22T00:29:42.583Z,51.20
2022-11-22T00:32:09.874Z,50.87
2022-11-22T00:34:38.105Z,69.27
2022-11-22T00:37:08.059Z,61.93
2022-11-22T00:39:35.594Z,61.23
2022-11-22T00:42:02.855Z,54.00
2022-11-22T00:44:30.163Z,63.07
2022-11-22T00:46:57.535Z,55.57
2022-11-22T00:49:24.743Z,55.93
2022-11-22T00:51:52.352Z,45.80
2022-11-22T00:54:19.531Z,52.50
2022-11-22T00:56:46.874Z,45.33
2022-11-22T00:59:17.122Z,37.73
2022-11-22T01:01:44.503Z,32.43
2022-11-22T01:04:11.874Z,42.97
2022-11-22T01:06:39.193Z,43.97
2022-11-22T01:09:06.442Z,39.43
2022-11-22T01:11:33.734Z,41.13
2022-11-22T01:14:03.166Z,41.63
2022-11-22T01:16:30.453Z,44.87
2022-11-22T01:18:57.704Z,32.77
2022-11-22T01:21:25.293Z,38.13
2022-11-22T01:23:52.473Z,34.17
2022-11-22T01:26:19.800Z,35.40
2022-11-22T01:28:48.022Z,38.40
2022-11-22T01:31:15.302Z,31.27
2022-11-22T01:33:43.536Z,32.23
2022-11-22T01:36:11.695Z,28.93
2022-11-22T01:38:38.893Z,31.63
2022-11-22T01:41:06.095Z,34.70
2022-11-22T01:43:33.232Z,32.30
2022-11-22T01:46:18.792Z,29.13
2022-11-22T01:49:09.362Z,25.83
2022-11-22T01:51:40.723Z,27.60
2022-11-22T01:54:16.343Z,25.97
2022-11-22T01:56:47.896Z,27.80
2022-11-22T01:59:19.531Z,28.67
2022-11-22T02:01:49.642Z,22.03
2022-11-22T02:04:18.792Z,27.50
2022-11-22T02:06:53.273Z,29.00
2022-11-22T02:09:23.132Z,28.07
2022-11-22T02:11:54.106Z,32.13
2022-11-22T02:14:27.053Z,30.63
2022-11-22T02:16:54.674Z,38.90
2022-11-22T02:19:42.234Z,35.30
2022-11-22T02:22:32.414Z,36.17
2022-11-22T02:25:28.582Z,36.87
2022-11-22T02:27:56.662Z,43.00
2022-11-22T02:30:24.099Z,36.33
2022-11-22T02:32:51.402Z,39.80
2022-11-22T02:35:27.983Z,37.60
2022-11-22T02:38:09.813Z,37.87
2022-11-22T02:40:49.795Z,40.13
2022-11-22T02:43:26.723Z,43.00
2022-11-22T02:45:54.013Z,36.27
2022-11-22T02:48:22.266Z,38.40
2022-11-22T02:50:49.506Z,36.90
2022-11-22T02:53:17.673Z,41.63
2022-11-22T02:55:45.032Z,40.33
2022-11-22T02:58:13.283Z,38.90
2022-11-22T03:00:41.639Z,39.13
2022-11-22T03:03:08.853Z,34.13
2022-11-22T03:05:37.067Z,35.03
2022-11-22T03:08:04.263Z,38.67
2022-11-22T03:10:31.815Z,36.20
2022-11-22T03:12:59.917Z,36.93
2022-11-22T03:15:27.272Z,41.00
2022-11-22T03:18:03.452Z,42.13
2022-11-22T03:20:32.808Z,45.03
2022-11-22T03:23:03.112Z,43.83
2022-11-22T03:25:31.272Z,44.73
2022-11-22T03:27:59.445Z,47.07
2022-11-22T03:30:26.694Z,43.33
2022-11-22T03:32:53.940Z,42.40
2022-11-22T03:35:21.184Z,47.90
2022-11-22T03:37:48.393Z,45.03
2022-11-22T03:40:15.853Z,58.40
2022-11-22T03:42:44.015Z,51.70
2022-11-22T03:45:12.273Z,52.63
2022-11-22T03:47:39.453Z,53.03
2022-11-22T03:50:07.314Z,44.43
2022-11-22T03:52:35.523Z,52.00
2022-11-22T03:55:03.945Z,54.97
2022-11-22T03:57:32.294Z,59.07
2022-11-22T03:59:59.513Z,61.73
2022-11-22T04:02:26.707Z,54.03
2022-11-22T04:04:54.019Z,49.57
2022-11-22T04:07:22.249Z,53.90
2022-11-22T04:09:49.559Z,55.20
2022-11-22T04:12:17.783Z,57.53
2022-11-22T04:15:09.424Z,57.07
2022-11-22T04:17:41.014Z,57.97
2022-11-22T04:20:48.563Z,63.63
2022-11-22T04:23:22.753Z,63.37
2022-11-22T04:25:52.826Z,66.33
2022-11-22T04:29:08.301Z,63.63
2022-11-22T04:31:32.666Z,67.20
2022-11-22T04:33:59.863Z,88.03
2022-11-22T04:36:27.203Z,79.33
2022-11-22T04:38:54.453Z,74.53
2022-11-22T04:41:23.534Z,66.33
2022-11-22T04:44:09.293Z,61.43
2022-11-22T04:46:36.616Z,53.73
2022-11-22T04:49:04.183Z,60.43
2022-11-22T04:51:49.852Z,68.20
2022-11-22T04:54:17.223Z,52.60
2022-11-22T04:56:44.526Z,61.37
2022-11-22T04:59:12.225Z,57.67
2022-11-22T05:01:39.346Z,49.63
2022-11-22T05:04:06.635Z,56.73
2022-11-22T05:06:33.715Z,55.50
2022-11-22T05:09:01.986Z,55.83
2022-11-22T05:11:31.124Z,60.40
2022-11-22T05:13:58.464Z,60.13
2022-11-22T05:16:25.603Z,50.03
2022-11-22T05:19:01.781Z,49.37
2022-11-22T05:21:30.364Z,46.23
2022-11-22T05:23:57.718Z,43.87
2022-11-22T05:26:33.604Z,46.23
2022-11-22T05:29:09.243Z,44.50
2022-11-22T05:31:38.565Z,42.47
2022-11-22T05:34:06.894Z,36.70
2022-11-22T05:36:35.103Z,51.00
2022-11-22T05:39:03.535Z,43.97
2022-11-22T05:41:30.944Z,41.17
2022-11-22T05:43:59.213Z,43.53
2022-11-22T05:46:28.823Z,36.20
2022-11-22T05:48:57.994Z,39.70
2022-11-22T05:51:33.676Z,38.80
2022-11-22T05:54:02.477Z,36.37
2022-11-22T05:56:30.864Z,38.93
2022-11-22T05:58:59.656Z,36.77
2022-11-22T06:01:26.944Z,33.27
2022-11-22T06:03:54.585Z,33.10
2022-11-22T06:06:22.115Z,37.27
2022-11-22T06:08:51.563Z,34.43
2022-11-22T06:11:22.551Z,35.63
2022-11-22T06:13:56.004Z,33.83
2022-11-22T06:16:24.825Z,36.57
2022-11-22T06:18:54.146Z,31.90
2022-11-22T06:21:24.164Z,32.83
2022-11-22T06:23:54.084Z,33.17
2022-11-22T06:26:22.973Z,32.43
2022-11-22T06:28:51.176Z,36.00
2022-11-22T06:31:24.660Z,33.07
2022-11-22T06:33:54.745Z,34.33
2022-11-22T06:36:25.523Z,31.63
2022-11-22T06:38:53.586Z,33.47
2022-11-22T06:41:24.333Z,33.40
2022-11-22T06:43:53.122Z,34.67
2022-11-22T06:46:22.598Z,32.23
2022-11-22T06:48:50.362Z,33.07
2022-11-22T06:51:21.799Z,36.67
2022-11-22T06:53:50.340Z,34.23
2022-11-22T06:56:23.942Z,35.13
2022-11-22T06:58:52.642Z,36.13
2022-11-22T07:01:28.611Z,60.53
2022-11-22T07:04:00.999Z,52.60
2022-11-22T07:06:31.428Z,44.13
2022-11-22T07:09:00.323Z,40.63
2022-11-22T07:11:29.924Z,38.27
2022-11-22T07:14:05.443Z,36.97
2022-11-22T07:16:35.358Z,39.90
2022-11-22T07:19:02.566Z,36.47
2022-11-22T07:21:30.792Z,44.47
2022-11-22T07:23:57.928Z,46.93
2022-11-22T07:26:26.532Z,40.43
2022-11-22T07:28:53.687Z,44.77
2022-11-22T07:31:21.516Z,46.73
2022-11-22T07:33:48.816Z,47.80
2022-11-22T07:36:18.405Z,46.93
2022-11-22T07:38:45.968Z,43.93
2022-11-22T07:41:13.838Z,44.63
2022-11-22T07:43:41.572Z,48.47
2022-11-22T07:46:24.935Z,42.40
2022-11-22T07:48:52.345Z,41.43
2022-11-22T07:51:19.562Z,47.23
2022-11-22T07:53:46.802Z,43.30
2022-11-22T07:56:14.393Z,47.17
2022-11-22T07:58:41.767Z,41.73
2022-11-22T08:01:14.232Z,44.33
2022-11-22T08:03:42.614Z,39.50
2022-11-22T08:06:12.453Z,44.43
2022-11-22T08:08:40.441Z,41.57
2022-11-22T08:11:08.621Z,46.33
2022-11-22T08:13:36.870Z,47.10
2022-11-22T08:16:07.581Z,41.73
2022-11-22T08:18:36.331Z,43.03
2022-11-22T08:21:06.121Z,45.30
2022-11-22T08:23:33.678Z,45.57
2022-11-22T08:26:01.621Z,49.83
2022-11-22T08:28:29.322Z,50.53
2022-11-22T08:31:02.882Z,52.77
2022-11-22T08:33:30.082Z,47.67
2022-11-22T08:35:57.275Z,45.77
2022-11-22T08:38:24.590Z,47.90
2022-11-22T08:40:52.213Z,48.10
2022-11-22T08:43:20.365Z,43.53
2022-11-22T08:45:53.441Z,47.90
2022-11-22T08:48:22.415Z,43.90
2022-11-22T08:50:52.537Z,44.93
2022-11-22T08:53:19.817Z,41.87
2022-11-22T08:55:47.287Z,41.67
2022-11-22T08:58:14.569Z,45.37
2022-11-22T09:00:41.963Z,45.53
2022-11-22T09:03:09.716Z,44.57
2022-11-22T09:08:24.813Z,41.07
2022-11-22T09:10:53.042Z,41.90
2022-11-22T09:13:21.213Z,36.23
2022-11-22T09:15:48.330Z,37.70
2022-11-22T09:18:15.579Z,39.57
2022-11-22T09:20:42.724Z,39.57
2022-11-22T09:23:09.888Z,39.73
2022-11-22T09:25:37.061Z,35.10
2022-11-22T09:28:04.348Z,36.53
2022-11-22T09:30:31.846Z,35.20
2022-11-22T09:32:58.951Z,33.17
2022-11-22T09:35:26.083Z,31.90
2022-11-22T09:37:53.297Z,30.60
2022-11-22T09:40:21.061Z,35.07
2022-11-22T09:43:08.241Z,31.53
2022-11-22T09:46:08.522Z,31.67
2022-11-22T09:48:44.487Z,35.33
2022-11-22T09:51:21.773Z,33.77
2022-11-22T09:53:58.133Z,34.27
2022-11-22T09:56:27.246Z,34.70
2022-11-22T09:59:12.911Z,31.43
2022-11-22T10:01:53.943Z,29.80
2022-11-22T10:04:41.122Z,31.50
2022-11-22T10:07:17.354Z,34.93
2022-11-22T10:09:49.966Z,29.23
2022-11-22T10:12:32.239Z,29.43
2022-11-22T10:15:12.326Z,28.87
2022-11-22T10:18:14.880Z,30.63
2022-11-22T10:20:48.592Z,28.33
2022-11-22T10:23:25.027Z,29.40
2022-11-22T10:26:13.987Z,27.13
2022-11-22T10:29:06.472Z,25.13
2022-11-22T10:31:39.441Z,24.70
2022-11-22T10:34:18.544Z,26.03
2022-11-22T10:36:57.371Z,26.87
2022-11-22T10:39:59.246Z,25.10
2022-11-22T10:42:54.153Z,22.13
2022-11-22T10:45:40.832Z,25.37
2022-11-22T10:48:21.995Z,25.40
2022-11-22T10:51:26.933Z,24.00
2022-11-22T10:54:18.144Z,28.47
2022-11-22T10:57:17.982Z,26.27
2022-11-22T11:00:03.128Z,24.67
2022-11-22T11:03:03.204Z,27.47
2022-11-22T11:06:15.307Z,22.50
2022-11-22T11:09:12.139Z,26.10
2022-11-22T11:11:28.972Z,23.30
2022-11-22T11:14:13.287Z,22.97
2022-11-22T11:16:41.071Z,22.80
2022-11-22T11:19:11.392Z,23.67
2022-11-22T11:21:38.524Z,22.70
2022-11-22T11:24:16.531Z,22.90
2022-11-22T11:26:53.798Z,20.20
2022-11-22T11:29:49.763Z,22.30
2022-11-22T11:32:22.202Z,22.03
2022-11-22T11:35:01.707Z,25.30
2022-11-22T11:37:36.992Z,20.50
2022-11-22T11:40:06.613Z,23.20
2022-11-22T11:42:35.771Z,20.00
2022-11-22T11:45:33.198Z,24.77
2022-11-22T11:48:00.443Z,22.00
2022-11-22T11:50:31.107Z,20.30
2022-11-22T11:53:05.768Z,21.20
2022-11-22T11:55:36.517Z,20.57
2022-11-22T11:58:17.495Z,22.33
2022-11-22T12:00:45.798Z,21.57
2022-11-22T12:03:17.969Z,23.90
2022-11-22T12:05:45.852Z,21.23
2022-11-22T12:08:34.218Z,20.50
2022-11-22T12:11:20.889Z,31.13
2022-11-22T12:16:46.687Z,26.27
2022-11-22T12:19:28.737Z,25.93
2022-11-22T12:22:29.419Z,29.83
2022-11-22T12:25:33.587Z,27.73
2022-11-22T12:28:28.072Z,31.83
2022-11-22T12:31:32.337Z,32.17
2022-11-22T12:34:12.042Z,32.93
2022-11-22T12:36:53.047Z,27.67
2022-11-22T12:39:26.783Z,29.47
2022-11-22T12:42:17.452Z,29.13
2022-11-22T12:44:55.277Z,30.67
2022-11-22T12:47:34.284Z,30.80
2022-11-22T12:50:38.617Z,28.33
2022-11-22T12:53:15.413Z,29.17
2022-11-22T12:56:17.302Z,28.40
2022-11-22T12:58:50.321Z,26.77
2022-11-22T13:01:38.159Z,29.40
2022-11-22T13:04:11.559Z,27.10
2022-11-22T13:06:59.372Z,28.00
2022-11-22T13:09:36.483Z,30.30
2022-11-22T13:12:12.633Z,34.63
2022-11-22T13:14:48.037Z,32.87
2022-11-22T13:17:17.672Z,31.33
2022-11-22T13:20:05.877Z,28.03
2022-11-22T13:22:57.492Z,26.80
2022-11-22T13:26:00.804Z,29.83
2022-11-22T13:28:33.123Z,27.27
2022-11-22T13:31:06.766Z,28.10
2022-11-22T13:33:36.371Z,29.40
2022-11-22T13:36:23.152Z,26.97
2022-11-22T13:38:57.876Z,25.07
2022-11-22T13:42:04.978Z,24.00
2022-11-22T13:44:32.562Z,29.90
2022-11-22T13:47:03.553Z,29.00
2022-11-22T13:49:48.858Z,27.23
2022-11-22T13:52:16.838Z,32.37
2022-11-22T13:54:47.087Z,37.50
2022-11-22T13:57:34.811Z,29.30
2022-11-22T14:00:14.412Z,24.40
2022-11-22T14:02:48.940Z,25.53
2022-11-22T14:05:41.050Z,30.57
2022-11-22T14:08:35.614Z,26.23
2022-11-22T14:11:12.349Z,21.27
2022-11-22T14:13:48.445Z,23.57
2022-11-22T14:16:26.147Z,20.03
2022-11-22T14:19:17.670Z,22.90
2022-11-22T14:22:17.722Z,23.20
2022-11-22T14:25:10.461Z,21.67
2022-11-22T14:28:18.593Z,47.33
2022-11-22T14:30:53.824Z,45.17
2022-11-22T14:33:26.878Z,28.33
2022-11-22T14:36:06.569Z,23.10
2022-11-22T14:38:35.875Z,25.80
2022-11-22T14:41:28.069Z,23.40
2022-11-22T14:44:20.063Z,24.27
2022-11-22T14:46:56.890Z,24.00
2022-11-22T14:49:44.962Z,23.27
2022-11-22T14:52:24.532Z,26.03
2022-11-22T14:54:58.207Z,24.03
2022-11-22T14:57:28.477Z,25.37
2022-11-22T15:00:11.104Z,28.50
2022-11-22T15:03:02.958Z,23.03
2022-11-22T15:09:17.050Z,25.17
2022-11-22T15:09:20.092Z,27.80
2022-11-22T15:11:36.814Z,29.13
2022-11-22T15:14:43.847Z,24.37
2022-11-22T15:58:05.004Z,33.60
2022-11-22T16:00:32.999Z,27.87
2022-11-22T16:03:03.033Z,26.83
2022-11-22T16:06:10.076Z,40.73
2022-11-22T16:08:26.432Z,37.50
2022-11-22T16:10:58.417Z,33.97
2022-11-22T16:13:28.207Z,37.33
2022-11-22T16:16:13.941Z,37.03
2022-11-22T16:18:43.370Z,39.07
2022-11-22T16:21:11.388Z,36.73
2022-11-22T16:23:45.416Z,30.87
2022-11-22T16:26:29.631Z,34.00
2022-11-22T16:29:17.281Z,31.83
2022-11-22T16:31:44.541Z,34.20
2022-11-22T16:34:15.327Z,29.73
2022-11-22T16:36:42.612Z,31.93
2022-11-22T16:39:10.113Z,27.37
2022-11-22T16:41:38.282Z,33.80
2022-11-22T16:44:13.188Z,32.43
2022-11-22T16:46:44.062Z,30.93
2022-11-22T16:49:22.808Z,30.73
2022-11-22T16:51:51.241Z,34.00
2022-11-22T16:54:20.360Z,28.90
2022-11-22T16:56:48.176Z,32.17
2022-11-22T16:59:15.552Z,32.63
2022-11-22T17:01:43.985Z,34.87
2022-11-22T17:04:22.976Z,35.97
2022-11-22T17:06:50.747Z,40.43
2022-11-22T17:09:18.013Z,42.77
2022-11-22T17:11:46.448Z,48.17
2022-11-22T17:14:18.217Z,49.17
2022-11-22T17:16:46.121Z,46.60
2022-11-22T17:19:37.567Z,46.60
2022-11-22T17:22:01.392Z,41.13
2022-11-22T17:24:29.715Z,41.80
2022-11-22T17:26:57.109Z,34.07
2022-11-22T17:32:15.014Z,29.97
2022-11-22T17:34:42.322Z,31.37
2022-11-22T17:37:13.876Z,35.43
2022-11-22T17:39:41.209Z,32.93
2022-11-22T17:42:08.976Z,35.03
2022-11-22T17:44:36.236Z,38.30
2022-11-22T17:47:03.861Z,46.97
2022-11-22T17:49:31.429Z,46.70
2022-11-22T17:51:59.036Z,41.40
2022-11-22T17:54:26.247Z,41.17
2022-11-22T17:56:53.392Z,47.20
2022-11-22T17:59:20.671Z,52.97
2022-11-22T18:01:47.873Z,49.13
2022-11-22T18:04:17.307Z,40.90
2022-11-22T18:06:44.686Z,42.47
2022-11-22T18:09:12.368Z,34.80
2022-11-22T18:11:39.632Z,32.47
2022-11-22T18:14:07.322Z,33.20
2022-11-22T18:16:34.540Z,40.70
2022-11-22T18:19:01.816Z,35.57
2022-11-22T18:21:31.121Z,39.90
2022-11-22T18:23:59.373Z,40.57
2022-11-22T18:26:42.619Z,42.00
2022-11-22T18:29:41.677Z,39.30
2022-11-22T18:32:00.547Z,39.27
2022-11-22T18:34:28.762Z,40.20
2022-11-22T18:39:44.201Z,35.53
2022-11-22T18:42:16.377Z,33.23
2022-11-22T18:44:43.658Z,37.57
2022-11-22T18:47:11.825Z,36.03
2022-11-22T18:49:40.240Z,33.20
2022-11-22T18:52:10.769Z,32.03
2022-11-22T18:54:40.720Z,39.40
2022-11-22T18:57:07.838Z,36.17
2022-11-22T18:59:35.141Z,34.50
2022-11-22T19:02:02.287Z,43.30
2022-11-22T19:04:30.477Z,46.77
2022-11-22T19:06:58.599Z,54.90
2022-11-22T19:09:25.848Z,46.00
2022-11-22T19:11:58.634Z,40.50
2022-11-22T19:14:29.387Z,40.70
2022-11-22T19:16:57.083Z,37.60
2022-11-22T19:19:24.912Z,40.17
2022-11-22T19:21:53.182Z,45.93
2022-11-22T19:24:20.357Z,46.83
2022-11-22T19:26:48.571Z,45.53
2022-11-22T19:29:16.197Z,47.47
2022-11-22T19:31:43.557Z,42.20
2022-11-22T19:34:10.952Z,40.23
2022-11-22T19:36:40.757Z,39.90
2022-11-22T19:39:13.326Z,40.30
2022-11-22T19:41:44.956Z,37.67
2022-11-22T19:44:12.350Z,35.47
2022-11-22T19:46:41.634Z,35.20
2022-11-22T19:49:09.438Z,37.90
2022-11-22T19:51:37.258Z,34.80
2022-11-22T19:54:04.962Z,40.47
2022-11-22T19:56:35.619Z,52.67
2022-11-22T19:59:05.416Z,59.40
2022-11-22T20:01:34.747Z,58.67
2022-11-22T20:04:05.948Z,57.90
2022-11-22T20:06:36.459Z,38.90
2022-11-22T20:09:10.176Z,43.63
2022-11-22T20:11:38.808Z,39.87
2022-11-22T20:14:06.630Z,34.97
2022-11-22T20:16:34.003Z,34.63
2022-11-22T20:19:04.659Z,33.10
2022-11-22T20:21:33.352Z,32.83
2022-11-22T20:24:01.597Z,34.27
2022-11-22T20:26:30.486Z,33.70
2022-11-22T20:29:07.599Z,34.47
2022-11-22T20:31:39.648Z,31.83
2022-11-22T20:34:08.253Z,32.93
2022-11-22T20:36:36.320Z,33.70
2022-11-22T20:39:09.737Z,32.73
2022-11-22T20:41:39.455Z,33.40
2022-11-22T20:44:10.865Z,33.13
2022-11-22T20:46:38.489Z,34.17
2022-11-22T20:49:06.740Z,33.53
2022-11-22T20:51:40.098Z,29.70
2022-11-22T20:54:19.618Z,30.80
2022-11-22T20:56:56.091Z,29.47
2022-11-22T20:59:23.438Z,29.73
2022-11-22T21:01:51.384Z,28.57
2022-11-22T21:04:23.452Z,28.47
2022-11-22T21:06:52.013Z,28.37
2022-11-22T21:09:20.419Z,29.77
2022-11-22T21:11:48.311Z,29.60
2022-11-22T21:14:16.247Z,29.50
2022-11-22T21:16:46.711Z,27.87
2022-11-22T21:19:15.728Z,27.07
2022-11-22T21:21:43.527Z,28.43
2022-11-22T21:24:13.406Z,28.63
2022-11-22T21:26:41.505Z,30.83
2022-11-22T21:29:16.436Z,27.53
2022-11-22T21:31:44.334Z,29.13
2022-11-22T21:34:12.864Z,25.93
2022-11-22T21:36:40.237Z,29.30
2022-11-22T21:39:07.619Z,27.63
2022-11-22T21:41:40.901Z,29.37
2022-11-22T21:44:11.572Z,27.00
2022-11-22T21:46:40.987Z,26.50
2022-11-22T21:49:08.938Z,26.40
2022-11-22T21:51:41.108Z,30.73
2022-11-22T21:54:09.998Z,29.43
2022-11-22T21:56:38.385Z,28.37
2022-11-22T21:59:06.188Z,26.80
2022-11-22T22:01:33.773Z,30.53
2022-11-22T22:04:04.619Z,28.73
2022-11-22T22:06:33.741Z,28.27
2022-11-22T22:09:01.460Z,28.83
2022-11-22T22:11:28.733Z,29.60
2022-11-22T22:13:56.814Z,25.77
2022-11-22T22:16:26.031Z,29.23
2022-11-22T22:18:54.465Z,29.60
2022-11-22T22:21:22.332Z,32.87
2022-11-22T22:23:49.820Z,26.53
2022-11-22T22:26:18.468Z,29.00
2022-11-22T22:28:46.645Z,31.60
2022-11-22T22:31:24.649Z,29.33
2022-11-22T22:33:54.751Z,31.87
2022-11-22T22:36:23.925Z,24.93
2022-11-22T22:38:51.340Z,26.00
2022-11-22T22:41:18.803Z,25.73
2022-11-22T22:43:48.055Z,28.03
2022-11-22T22:46:16.671Z,25.20
2022-11-22T22:48:44.145Z,27.90
2022-11-22T22:51:15.038Z,25.90
2022-11-22T22:53:43.403Z,28.00
2022-11-22T22:56:12.390Z,28.90
2022-11-22T22:58:39.682Z,26.90
2022-11-22T23:01:13.753Z,26.87
2022-11-22T23:03:41.647Z,26.97
2022-11-22T23:06:13.578Z,28.47
2022-11-22T23:08:43.993Z,24.70
2022-11-22T23:11:12.683Z,26.93
2022-11-22T23:13:42.229Z,27.40
2022-11-22T23:16:14.908Z,27.17
2022-11-22T23:18:43.851Z,27.23
2022-11-22T23:21:13.849Z,29.20
2022-11-22T23:23:41.145Z,26.83
2022-11-22T23:26:11.143Z,28.30
2022-11-22T23:28:39.053Z,28.40
2022-11-22T23:31:10.567Z,31.00
2022-11-22T23:33:37.839Z,34.47
2022-11-22T23:36:10.407Z,32.70
2022-11-22T23:38:38.568Z,38.10
2022-11-22T23:41:06.251Z,34.57
2022-11-22T23:43:33.539Z,40.13
2022-11-22T23:46:00.693Z,34.10
2022-11-22T23:48:28.048Z,31.83
2022-11-22T23:50:55.392Z,35.67
2022-11-22T23:53:22.633Z,33.77
2022-11-22T23:55:49.773Z,36.50
2022-11-22T23:58:16.959Z,39.03
